Orléans – Saint-Denis-de-l'Hôtel Airport

LFOZ · Loiret, Centre, 法国

罗盘
风向 的 风向 190° Orléans – Saint-Denis-de-l'Hôtel Airport 5/23
风: 4 kt, 2 beaufort

3 kt

3 kt
改变
0 ft 1.000 2.000 3.000 4.000 5.000
CAVOK
METAR LFOZ 201830Z AUTO 19004KT CAVOK 29/16 Q1006

METAR Orléans – Saint-Denis-de-l'Hôtel Airport - LFOZ/ORE

Orléans – Saint-Denis-de-l'Hôtel Airport是,法国中的小机场。 该机场位于纬度47,89804和经度2,16583。 该机场有2条跑道: 5/23 和 5R/23L. 本场的ICAO机场代码为LFOZ。 该机场的IATA代码为ORE。 机场在Paris FIR中。

该航空气象观测是针对Orléans – Saint-Denis-de-l'Hôtel Airport在2024年7月20日 20:30, 当地时间进行的。

机场观察

风向为190°,速度为4 kt。

天气为CAVOK。这意味着在5.000 ft或MSA(最低安全高度)以下(以较高者为准)以下没有云。这也意味着没有观测到积雨云或高耸的积云,可见度为10 km 或者更多或更高。此外,不会有雾,降雨或其他重要天气。

温度和风寒是29 °C。 热指数为29。 露点为16 °C,相对湿度为45%。 海平面上的气压为1006 hPa (QNH)。

白天

今天,太阳从06:14升起,在21:41降落。 这适用于Orléans – Saint-Denis-de-l'Hôtel Airport,世界夏令时可能有所不同。 当地时间与世界标准时间之间的时差为+2 小时。 夏令时目前正在进行中。

公司介绍

在这个机场,你可以找到飞行俱乐部 和 跳伞中心。 这个机场上的公司有Fly7, Héli-Sphère, Aéroclub d'Orléans Loiret Col. Jean Demozay, Club de Voltige Aérienne d'Orléans - CVAO 和 EPCOL Orleans。

体会

到Vliegles.nl去找飞行课程,跳伞和其他飞行体验。 浏览页面,了解Orléans – Saint-Denis-de-l'Hôtel Airport附近所有可用的活动。 你也可以使用搜索功能来寻找你所在地附近的特定飞行课程、跳伞或其他飞行体验。

跑道

Id 标题 侧风 逆风 侧风 %
5/23 053°-233° 3 kt 3 kt 68 %
5R/23L 054°-234° 3 kt 3 kt 69 %

逆风成分最大的方向会被突出显示,并用于横风计算。 这并不一定意味着这个方向在使用。

温度 & 天气

温度 29 °C
露点 16 °C
相对湿度 45%
热度指数 29 °C
Kp-index 0 (0-9)

白天

日出
06:14
中午
13:57
日落
21:41 (52m)

小工具

你想在你的网站上有一个关于Orléans – Saint-Denis-de-l'Hôtel Airport的当前航空天气(METAR)的小部件吗?

显示HTML代码
报告变更